createdAt,value
2023-03-19T00:03:54.346Z,101898.84
2023-03-19T00:08:55.823Z,101903.69
2023-03-19T00:13:56.673Z,101890.75
2023-03-19T00:18:55.286Z,101893.75
2023-03-19T00:24:01.149Z,101891.56
2023-03-19T00:29:03.172Z,101886.06
2023-03-19T00:34:04.546Z,101879.34
2023-03-19T00:39:06.978Z,101871.34
2023-03-19T00:44:18.307Z,101876.56
2023-03-19T00:49:17.456Z,101872.22
2023-03-19T00:54:18.635Z,101873.69
2023-03-19T00:59:21.140Z,101870.31
2023-03-19T01:04:23.467Z,101868.81
2023-03-19T01:09:23.364Z,101861.06
2023-03-19T01:14:24.202Z,101856.59
2023-03-19T01:19:26.491Z,101863.13
2023-03-19T01:24:33.892Z,101865.06
2023-03-19T01:29:32.054Z,101868.41
2023-03-19T01:34:41.229Z,101862.00
2023-03-19T01:39:44.000Z,101860.34
2023-03-19T01:44:53.830Z,101863.50
2023-03-19T01:49:56.453Z,101861.59
2023-03-19T01:54:56.945Z,101861.56
2023-03-19T02:00:24.673Z,101856.34
2023-03-19T02:05:38.844Z,101846.31
2023-03-19T02:10:41.653Z,101849.78
2023-03-19T02:15:43.106Z,101850.75
2023-03-19T02:20:44.064Z,101859.78
2023-03-19T02:25:45.278Z,101856.25
2023-03-19T02:30:44.246Z,101860.59
2023-03-19T02:35:45.847Z,101860.06
2023-03-19T02:41:02.983Z,101865.94
2023-03-19T02:51:28.938Z,101861.84
2023-03-19T02:56:29.106Z,101866.78
2023-03-19T03:01:28.651Z,101865.25
2023-03-19T03:06:27.876Z,101860.38
2023-03-19T03:11:28.209Z,101873.50
2023-03-19T03:16:31.597Z,101877.41
2023-03-19T03:21:35.603Z,101875.50
2023-03-19T03:26:42.139Z,101870.31
2023-03-19T03:31:40.590Z,101876.94
2023-03-19T03:36:47.402Z,101881.50
2023-03-19T03:41:47.863Z,101887.88
2023-03-19T03:46:46.990Z,101881.44
2023-03-19T03:51:48.514Z,101885.28
2023-03-19T03:56:52.476Z,101877.72
2023-03-19T04:01:53.119Z,101880.16
2023-03-19T04:06:52.719Z,101887.91
2023-03-19T04:12:05.616Z,101896.03
2023-03-19T04:17:08.240Z,101899.75
2023-03-19T04:22:08.743Z,101896.56
2023-03-19T04:27:07.773Z,101911.00
2023-03-19T04:32:08.046Z,101908.53
2023-03-19T04:37:06.386Z,101909.06
2023-03-19T04:42:09.157Z,101911.59
2023-03-19T04:47:16.106Z,101913.31
2023-03-19T04:52:26.295Z,101907.09
2023-03-19T04:57:29.666Z,101917.25
2023-03-19T05:02:32.523Z,101917.00
2023-03-19T05:07:34.320Z,101916.84
2023-03-19T05:12:37.550Z,101906.75
2023-03-19T05:17:41.554Z,101906.41
2023-03-19T05:23:05.239Z,101900.97
2023-03-19T05:28:17.407Z,101908.72
2023-03-19T05:33:17.600Z,101898.78
2023-03-19T05:38:20.507Z,101909.63
2023-03-19T05:43:29.632Z,101910.63
2023-03-19T05:48:33.722Z,101911.75
2023-03-19T05:53:35.481Z,101919.72
2023-03-19T05:59:02.474Z,101909.03
2023-03-19T06:04:09.051Z,101910.47
2023-03-19T06:09:12.417Z,101910.88
2023-03-19T06:14:13.849Z,101913.50
2023-03-19T06:19:19.449Z,101912.56
2023-03-19T06:30:02.901Z,101920.50
2023-03-19T06:35:09.039Z,101924.91
2023-03-19T06:40:15.861Z,101926.91
2023-03-19T06:45:19.733Z,101923.50
2023-03-19T06:50:18.343Z,101932.72
2023-03-19T06:55:20.590Z,101935.41
2023-03-19T07:00:27.200Z,101923.72
2023-03-19T07:05:29.907Z,101924.34
2023-03-19T07:10:37.121Z,101924.09
2023-03-19T07:15:36.946Z,101931.50
2023-03-19T07:20:38.986Z,101935.06
2023-03-19T07:25:45.245Z,101938.41
2023-03-19T07:30:45.342Z,101936.72
2023-03-19T07:35:48.294Z,101930.81
2023-03-19T07:41:00.985Z,101930.25
2023-03-19T07:46:02.200Z,101930.59
2023-03-19T07:51:02.200Z,101919.94
2023-03-19T07:56:02.468Z,101926.25
2023-03-19T08:01:03.167Z,101916.88
2023-03-19T08:06:06.088Z,101911.06
2023-03-19T08:11:08.965Z,101909.16
2023-03-19T08:16:33.668Z,101908.34
2023-03-19T08:21:34.193Z,101897.56
2023-03-19T08:26:39.523Z,101892.09
2023-03-19T08:31:41.828Z,101896.63
2023-03-19T08:37:07.509Z,101889.47
2023-03-19T08:42:19.460Z,101894.81
2023-03-19T08:47:43.520Z,101878.19
2023-03-19T08:53:04.730Z,101873.03
2023-03-19T08:58:07.998Z,101869.78
2023-03-19T09:03:14.046Z,101869.31
2023-03-19T09:08:19.907Z,101866.81
2023-03-19T09:18:44.867Z,101849.63
2023-03-19T09:23:47.027Z,101844.69
2023-03-19T09:28:56.048Z,101843.00
2023-03-19T09:34:32.998Z,101841.38
2023-03-19T09:39:36.674Z,101842.69
2023-03-19T09:44:44.987Z,101841.91
2023-03-19T09:49:56.690Z,101832.09
2023-03-19T09:54:58.864Z,101831.25
2023-03-19T10:00:03.746Z,101826.59
2023-03-19T10:05:26.427Z,101809.09
2023-03-19T10:10:48.219Z,101807.06
2023-03-19T10:16:04.994Z,101805.22
2023-03-19T10:34:15.411Z,101781.69
2023-03-19T10:39:19.040Z,101787.84
2023-03-19T10:44:34.038Z,101775.47
2023-03-19T10:49:56.510Z,101757.34
2023-03-19T10:55:20.597Z,101752.09
2023-03-19T11:00:28.541Z,101747.69
2023-03-19T11:05:36.234Z,101735.66
2023-03-19T11:10:56.041Z,101734.91
2023-03-19T11:15:55.418Z,101723.66
2023-03-19T11:21:06.660Z,101714.28
2023-03-19T11:26:08.572Z,101714.53
2023-03-19T11:31:14.738Z,101704.72
2023-03-19T11:36:36.327Z,101698.66
2023-03-19T11:41:38.056Z,101696.09
2023-03-19T11:46:55.949Z,101685.81
2023-03-19T11:52:02.378Z,101684.50
2023-03-19T11:57:08.869Z,101673.56
2023-03-19T12:02:18.977Z,101670.94
2023-03-19T12:07:40.420Z,101665.44
2023-03-19T12:12:40.982Z,101646.78
2023-03-19T12:17:42.656Z,101640.06
2023-03-19T12:22:43.964Z,101629.09
2023-03-19T12:27:52.111Z,101632.63
2023-03-19T12:33:03.705Z,101620.53
2023-03-19T12:38:07.352Z,101609.06
2023-03-19T12:43:15.862Z,101605.13
2023-03-19T12:48:43.322Z,101595.94
2023-03-19T12:54:10.585Z,101595.16
2023-03-19T12:59:18.101Z,101585.56
2023-03-19T13:04:22.200Z,101589.72
2023-03-19T13:09:22.912Z,101583.22
2023-03-19T13:14:24.717Z,101574.91
2023-03-19T13:19:36.684Z,101576.94
2023-03-19T13:24:41.555Z,101572.59
2023-03-19T13:29:40.278Z,101554.69
2023-03-19T13:34:44.109Z,101549.34
2023-03-19T13:39:45.948Z,101550.88
2023-03-19T13:45:01.857Z,101538.50
2023-03-19T13:50:16.918Z,101533.28
2023-03-19T13:55:54.739Z,101524.84
2023-03-19T14:00:59.005Z,101514.56
2023-03-19T14:06:01.486Z,101505.69
2023-03-19T14:11:07.420Z,101497.56
2023-03-19T14:16:12.087Z,101495.78
2023-03-19T14:21:45.333Z,101490.06
2023-03-19T14:26:50.901Z,101498.91
2023-03-19T14:31:55.323Z,101490.03
2023-03-19T14:37:25.160Z,101499.34
2023-03-19T14:42:27.390Z,101490.19
2023-03-19T14:47:39.887Z,101493.13
2023-03-19T14:53:00.767Z,101498.94
2023-03-19T14:58:00.911Z,101489.22
2023-03-19T15:03:03.884Z,101488.13
2023-03-19T15:08:12.694Z,101496.56
2023-03-19T15:13:26.775Z,101493.25
2023-03-19T15:18:26.303Z,101486.72
2023-03-19T15:23:44.782Z,101487.41
2023-03-19T15:28:54.000Z,101491.91
2023-03-19T15:33:53.597Z,101494.94
2023-03-19T15:39:04.877Z,101485.16
2023-03-19T15:44:04.150Z,101490.78
2023-03-19T15:49:14.283Z,101490.91
2023-03-19T15:54:11.614Z,101476.47
2023-03-19T15:59:11.451Z,101484.53
2023-03-19T16:04:17.934Z,101479.50
2023-03-19T16:09:30.482Z,101494.34
2023-03-19T16:14:46.493Z,101492.78
2023-03-19T16:20:05.488Z,101486.25
2023-03-19T16:25:13.507Z,101499.34
2023-03-19T16:30:22.008Z,101496.25
2023-03-19T16:35:21.592Z,101502.47
2023-03-19T16:40:24.141Z,101505.91
2023-03-19T16:45:25.996Z,101503.06
2023-03-19T16:50:31.218Z,101505.31
2023-03-19T16:55:49.990Z,101508.06
2023-03-19T17:00:53.590Z,101506.69
2023-03-19T17:05:56.526Z,101512.59
2023-03-19T17:10:58.692Z,101501.47
2023-03-19T17:16:02.212Z,101507.97
2023-03-19T17:21:07.254Z,101514.16
2023-03-19T17:26:21.002Z,101524.56
2023-03-19T17:31:24.190Z,101522.72
2023-03-19T17:36:22.568Z,101520.84
2023-03-19T17:41:23.350Z,101522.44
2023-03-19T17:46:24.361Z,101534.72
2023-03-19T17:51:23.336Z,101530.28
2023-03-19T17:56:25.339Z,101529.06
2023-03-19T18:01:27.560Z,101526.84
2023-03-19T18:06:32.022Z,101529.06
2023-03-19T18:11:30.112Z,101524.13
2023-03-19T18:16:31.414Z,101522.81
2023-03-19T18:21:30.177Z,101525.31
2023-03-19T18:26:33.679Z,101521.38
2023-03-19T18:31:32.561Z,101514.91
2023-03-19T18:36:34.847Z,101519.69
2023-03-19T18:41:33.918Z,101517.78
2023-03-19T18:46:34.911Z,101516.47
2023-03-19T18:51:36.126Z,101499.84
2023-03-19T18:56:43.752Z,101503.94
2023-03-19T19:01:45.652Z,101511.28
2023-03-19T19:06:48.286Z,101522.03
2023-03-19T19:11:51.219Z,101518.63
2023-03-19T19:16:52.444Z,101518.84
2023-03-19T19:21:54.473Z,101525.28
2023-03-19T19:27:01.035Z,101512.56
2023-03-19T19:32:09.059Z,101528.50
2023-03-19T19:37:20.346Z,101530.13
2023-03-19T19:42:23.056Z,101532.91
2023-03-19T19:47:22.174Z,101534.44
2023-03-19T19:52:27.044Z,101529.97
2023-03-19T19:57:29.634Z,101531.09
2023-03-19T20:02:33.607Z,101536.44
2023-03-19T20:07:37.823Z,101532.59
2023-03-19T20:12:45.682Z,101531.75
2023-03-19T20:17:54.104Z,101532.03
2023-03-19T20:23:01.608Z,101538.41
2023-03-19T20:28:03.983Z,101544.22
2023-03-19T20:33:13.480Z,101542.28
2023-03-19T20:38:18.520Z,101542.94
2023-03-19T20:43:18.770Z,101549.34
2023-03-19T20:48:21.616Z,101543.13
2023-03-19T20:53:27.345Z,101533.22
2023-03-19T20:58:40.479Z,101546.31
2023-03-19T21:03:44.354Z,101550.31
2023-03-19T21:08:48.253Z,101545.44
2023-03-19T21:13:49.757Z,101544.66
2023-03-19T21:19:11.796Z,101546.41
2023-03-19T21:24:14.062Z,101541.44
2023-03-19T21:29:16.229Z,101537.63
2023-03-19T21:34:15.447Z,101538.41
2023-03-19T21:39:17.662Z,101539.13
2023-03-19T21:44:17.001Z,101532.97
2023-03-19T21:49:23.919Z,101528.63
2023-03-19T21:54:29.573Z,101532.97
2023-03-19T21:59:34.472Z,101529.53
2023-03-19T22:04:33.431Z,101526.97
2023-03-19T22:09:32.436Z,101528.19
2023-03-19T22:14:33.208Z,101535.84
2023-03-19T22:19:36.238Z,101529.47
2023-03-19T22:24:38.290Z,101528.44
2023-03-19T22:29:36.458Z,101519.81
2023-03-19T22:34:35.938Z,101513.16
2023-03-19T22:39:34.844Z,101502.84
2023-03-19T22:44:39.149Z,101507.22
2023-03-19T22:49:39.014Z,101501.31
2023-03-19T22:54:36.554Z,101507.97
2023-03-19T22:59:35.591Z,101498.38
2023-03-19T23:04:40.733Z,101506.19
2023-03-19T23:09:38.402Z,101496.16
2023-03-19T23:14:39.148Z,101493.09
2023-03-19T23:19:40.771Z,101496.53
2023-03-19T23:24:55.696Z,101491.47
2023-03-19T23:29:53.588Z,101496.44
2023-03-19T23:35:00.609Z,101490.53
2023-03-19T23:40:09.497Z,101489.34
2023-03-19T23:45:16.280Z,101485.56
2023-03-19T23:50:16.049Z,101484.13
2023-03-19T23:55:16.634Z,101491.34
